Ashton, Illinois
Current Conditions -  °F | °C
As of 6:15 AM on Saturday 01 Nov 2014 (Local Time) from KRPJ Reporting Station
Broken Clouds Broken Clouds  
Wind Chill: 18°   Ceiling: 3300
Heat Index: 28°   Visibility: 10mi
Dew Point: 21°   Wind: 10mph
Humidity: 76%   Direction: 330°NNW
Pressure: 30.44"   Gusts: NA
Location:  41.87°N, 89.22°W
Report Text: KRPJ 011115Z AUTO 33009KT 10SM BKN033 M02/M06 A3044 RMK AO2 T10251062
Loading
Personal Weather Stations






























Interactive Weather Map
Tropical Storm Tracking
New forecast layout! Learn more

10-Day Weather Forecast

Advertisements
Track Severe Weather on mobile